Tiempo atmosférico en la estación meteorológica de Villayón, Oneta, Asturias (410 m.)



Fecha
DESCASC
Temp. máxima en grados centígrados (hora)
DESCASC
Temp. mínima en grados centígrados (hora)
DESCASC
Temp. media en grados centígrados
DESCASC
Racha de viento máxima en m/sg (hora)
DESCASC
Velocidad máxima media en intervalos de 10 minutos(hora)
DESCASC
Precipitaciones diarias en mm
DESCASC
Precipitaciones de 00:00 a 06:00 en mm
DESCASC
Precipitaciones de 06:00 a 12:00 en mm
DESCASC
Precipitaciones de 12:00 a 18:00 en mm
DESCASC
Precipitaciones de 18:00 a 24:00 en mm
DESCASC
05-12-2019 10.9 (14:40) 7.2 (04:40) 9 11.11 (14:10) 6.11 (14:20) 0.4 0.4 0 0 0
04-12-2019 10.1 (15:00) 2 (03:20) 6.1 6.39 (19:30) 4.17 (18:20) 0 0 0 0 0
03-12-2019 8.4 (14:30) 3.4 (00:00) 5.9 16.67 (06:30) 7.5 (09:20) 0 0 0 0 0
02-12-2019 -- (--) -- (--) -- -- (--) -- (--) -- -- -- -- 0
01-12-2019 -- (--) -- (--) -- -- (--) -- (--) -- -- -- -- --
30-11-2019 -- (--) -- (--) -- -- (--) -- (--) -- 2.8 5.2 -- --
29-11-2019 -- (--) -- (--) -- -- (--) -- (--) 0 0 0 0 0
28-11-2019 12.7 (13:00) 10.6 (00:00) 11.7 15 (17:20) 5.28 (17:30) 11.2 0 0 6.4 4.8
27-11-2019 12.6 (13:10) 9.7 (00:00) 11.2 15.56 (10:50) 5.28 (06:40) 0.2 0.2 0 0 0
26-11-2019 17.4 (14:50) 9.2 (00:00) 13.3 22.22 (12:40) 11.11 (18:10) 7.2 0.2 0.2 2 4.8
25-11-2019 15.2 (23:59) 11 (00:00) 13.1 16.39 (22:10) 6.94 (21:20) 0 0 0 0 0
24-11-2019 14.3 (15:50) 7.3 (00:00) 10.8 19.72 (15:20) 8.33 (16:10) 0.2 0.2 0 0 0
23-11-2019 9.6 (15:20) 6.4 (00:00) 8 23.61 (01:20) 13.33 (01:00) 40.6 24.2 7.4 8.8 0.2
22-11-2019 13.6 (11:40) 8.3 (00:00) 11 17.78 (09:30) 10 (23:59) 20.2 0 0.2 2.2 17.8
21-11-2019 11.9 (14:20) 6.3 (00:00) 9.1 10 (07:20) 4.44 (07:00) 0 0 0 0 0
20-11-2019 11.8 (15:50) 7.1 (00:00) 9.5 11.39 (23:30) 4.72 (21:40) 0 0 0 0 0
19-11-2019 9.6 (13:40) 3.2 (00:00) 6.4 5.28 (11:50) 3.33 (01:10) 0.2 0 0 0.2 0
18-11-2019 9.8 (15:10) 5.5 (00:00) 7.7 8.89 (05:50) 3.06 (22:10) 13.8 11.2 1.8 0.8 0
17-11-2019 9.4 (14:40) 5.9 (00:00) 7.6 13.33 (21:00) 6.67 (21:10) 16 1.8 0.4 2 11.8
16-11-2019 9.6 (15:00) 3.4 (00:00) 6.5 11.11 (20:40) 5.28 (23:10) 6.6 4.8 1.8 0 0
15-11-2019 7 (22:40) 3 (00:00) 5 24.72 (04:10) 17.78 (04:10) 46.8 22.4 6.2 15.4 2.8
14-11-2019 7 (21:10) 3 (00:00) 5 27.78 (19:30) 18.61 (21:30) 19.2 4.6 1 5.6 8
13-11-2019 11.6 (00:00) 6.4 (00:00) 9 20.28 (23:59) 10.83 (23:59) 18.6 5.8 2.4 0 10.4
12-11-2019 12.1 (23:10) 6.7 (00:00) 9.4 16.67 (15:30) 6.11 (15:40) 28.2 0 0.8 8.4 19
11-11-2019 10.8 (13:20) 6.9 (00:30) 8.9 15.83 (08:20) 9.72 (08:10) 9.8 2.4 7.2 0 0.2
10-11-2019 7.6 (00:10) 6.1 (00:00) 6.8 14.44 (11:40) 8.06 (11:40) 24.6 6.6 4.6 7.6 5.8
09-11-2019 12.8 (11:40) 7.5 (00:00) 10.2 22.78 (19:30) 11.67 (19:30) 7.2 0.2 0.2 1.8 5
08-11-2019 9.9 (15:50) 4.5 (00:00) 7.2 14.72 (13:40) 8.06 (13:40) 18.8 3.2 7.6 7.8 0.2
07-11-2019 9 (01:00) 4.2 (00:00) 6.6 17.78 (16:40) 6.39 (16:40) 9 0.6 1.6 5.2 1.6
06-11-2019 12.7 (14:40) 8.2 (00:00) 10.4 16.39 (22:10) 9.17 (22:20) 7.8 2 0 0.8 5

Gráficas

Temp. máximas Temp. mínimas Temp. medias Precipitaciones Rachas de viento máximas Velocidades máximas media en intervalos de 10 minutos

Datos horarios

Fecha y hora oficial Temperatura (ºC) Velocidad del viento (km/h) Dirección del viento Racha (km/h) Dirección de racha Precipitación (mm) Presión (hPa) Tendencia (hPa) Humedad (%)
2019-12-05 23:00:00 8.7 9 Sudeste 23 Sudeste 0 -- -- 87
2019-12-05 22:00:00 9.1 17 Este 27 Este 0 -- -- 89
2019-12-05 21:00:00 9.1 8 Sudeste 27 Este 0 -- -- 88
2019-12-05 20:00:00 9 7 Este 28 Este 0 -- -- 89
2019-12-05 19:00:00 9.1 14 Este 31 Nordeste 0 -- -- 88
2019-12-05 18:00:00 9.3 14 Nordeste 32 Este 0 -- -- 93
2019-12-05 17:00:00 9.7 17 Nordeste 33 Este 0 -- -- 88
2019-12-05 16:00:00 9.9 14 Este 30 Este 0 -- -- 92
2019-12-05 15:00:00 10.5 14 Este 40 Este 0 -- -- 87
2019-12-05 14:00:00 10.7 19 Nordeste 37 Este 0 -- -- 87
2019-12-05 13:00:00 10 13 Nordeste 31 Este 0 -- -- 90
2019-12-05 12:00:00 9.6 9 Este 37 Este 0 -- -- 93
2019-12-05 11:00:00 8.8 13 Nordeste 31 Este 0 -- -- 95
2019-12-05 10:00:00 8.9 12 Este 31 Este 0 -- -- 92
2019-12-05 09:00:00 8.6 11 Este 36 Este 0 -- -- 92
2019-12-05 08:00:00 8.4 18 Este 36 Nordeste 0 -- -- 94
2019-12-05 07:00:00 8.4 18 Este 32 Nordeste 0 -- -- 95
2019-12-05 06:00:00 7.5 5 Nordeste 18 Nordeste 0.4 -- -- 100
2019-12-05 05:00:00 7.3 12 Este 27 Este 0 -- -- 96
2019-12-05 04:00:00 8.6 9 Nordeste 24 Nordeste 0 -- -- 80
2019-12-05 03:00:00 8.6 6 Nordeste 15 Este 0 -- -- 76
2019-12-05 02:00:00 8.1 5 Este 15 Este 0 -- -- 78
2019-12-05 01:00:00 8.2 10 Este 22 Este 0 -- -- 79
2019-12-05 00:00:00 8.2 12 Este 18 Este 0 -- -- 79
2019-12-04 23:00:00 7.8 14 Este 21 Este 0 -- -- 84
2019-12-04 22:00:00 7.6 8 Este 12 Este 0 -- -- 82
2019-12-04 21:00:00 7.1 7 Este 18 Este 0 -- -- 82
2019-12-04 20:00:00 6.7 12 Este 23 Este 0 -- -- 86
2019-12-04 19:00:00 6.7 10 Nordeste 21 Este 0 -- -- 86
2019-12-04 18:00:00 6.7 14 Este 18 Este 0 -- -- 84
2019-12-04 17:00:00 7.9 3 Sudoeste 17 Este 0 -- -- 81
2019-12-04 16:00:00 8.9 4 Sur 14 Noroeste 0 -- -- 78
2019-12-04 15:00:00 10.1 3 Sudoeste 7 Sur 0 -- -- 64
2019-12-04 14:00:00 7.9 2 Noroeste 6 Sur 0 -- -- 70
2019-12-04 13:00:00 8.5 2 Sur 8 Sur 0 -- -- 75
2019-12-04 12:00:00 6.6 4 Sudeste 8 Sudeste 0 -- -- 75
2019-12-04 11:00:00 5.5 5 Sur 7 Sur 0 -- -- 78
2019-12-04 10:00:00 2.7 2 Este 4 Este 0 -- -- 83
2019-12-04 09:00:00 2.2 3 Sudeste 6 Sudeste 0 -- -- 83
2019-12-04 08:00:00 2.7 2 Este 8 Este 0 -- -- 81
2019-12-04 07:00:00 2.2 3 Sudeste 8 Sudeste 0 -- -- 85
2019-12-04 06:00:00 2.1 0 Calma 8 Sudoeste 0 -- -- 88
2019-12-04 05:00:00 2.8 4 Sudoeste 10 Sur 0 -- -- 85
2019-12-04 04:00:00 2.3 4 Sudoeste 12 Sudoeste 0 -- -- 89
2019-12-04 03:00:00 2.5 0 Calma 6 Este 0 -- -- 89
2019-12-04 02:00:00 2.4 3 Sudeste 6 Sur 0 -- -- 92
2019-12-04 01:00:00 2.9 2 Sur 5 Sur 0 -- -- 90
2019-12-04 00:00:00 3.4 3 Sur 14 Sudeste 0 -- -- 89
2019-12-03 23:00:00 4.2 12 Sudeste 29 Este 0 -- -- 86
2019-12-03 22:00:00 4.3 12 Sudeste 23 Este 0 -- -- 86
2019-12-03 21:00:00 4.4 6 Este 27 Este 0 -- -- 87
2019-12-03 20:00:00 4.6 15 Este 27 Este 0 -- -- 87
2019-12-03 19:00:00 5.1 10 Este 26 Este 0 -- -- 85
2019-12-03 18:00:00 6.3 16 Este 28 Este 0 -- -- 78
2019-12-03 17:00:00 7.3 14 Nordeste 25 Nordeste 0 -- -- 70
2019-12-03 16:00:00 7.9 21 Este 32 Sudeste 0 -- -- 68
2019-12-03 15:00:00 8.2 18 Este 36 Sudeste 0 -- -- 68
2019-12-03 14:00:00 8.1 20 Este 52 Este 0 -- -- 70
2019-12-03 13:00:00 7.6 24 Este 46 Este 0 -- -- 75
2019-12-03 12:00:00 6.7 19 Este 44 Este 0 -- -- 79
2019-12-03 11:00:00 6.1 17 Sudeste 46 Este 0 -- -- 79
2019-12-03 10:00:00 5.8 23 Sudeste 46 Este 0 -- -- 82
2019-12-03 09:00:00 5.4 25 Este 43 Este 0 -- -- 83
2019-12-03 08:00:00 5.4 21 Este 47 Este 0 -- -- 82
2019-12-03 07:00:00 5.6 18 Este 60 Este 0 -- -- 83
2019-12-03 06:00:00 5.5 17 Este 44 Nordeste 0 -- -- 84
2019-12-03 05:00:00 5.6 13 Este 37 Nordeste 0 -- -- 84
2019-12-03 04:00:00 5.6 9 Este 35 Este 0 -- -- 83
2019-12-03 03:00:00 5.8 15 Este 40 Sudeste 0 -- -- 81
2019-12-03 02:00:00 5.8 15 Este 37 Este 0 -- -- 84
2019-12-03 01:00:00 5.9 14 Este 45 Este 0 -- -- 83
2019-12-03 00:00:00 6.1 17 Este 41 Este 0 -- -- 81
2019-12-02 23:00:00 6.3 18 Este 40 Este 0 -- -- 80
2019-12-02 22:00:00 6.4 20 Este 41 Este 0 -- -- 81
2019-12-02 21:00:00 6.1 20 Este 40 Este 0 -- -- 81
2019-12-02 20:00:00 6.2 22 Este 40 Nordeste 0 -- -- 85
2019-12-02 19:00:00 6.6 20 Este 38 Nordeste 0 -- -- 84
2019-12-02 18:00:00 7 16 Este 35 Nordeste 0 -- -- 89
2019-12-02 17:00:00 7.1 25 Nordeste 50 Nordeste 0 -- -- 89
2019-12-02 16:00:00 7.3 28 Nordeste 50 Nordeste 0 -- -- 92
2019-12-02 15:00:00 7.9 23 Nordeste 44 Este 0 -- -- 85
2019-12-02 14:00:00 7.4 21 Nordeste 42 Nordeste 0 -- -- 89
2019-12-02 13:00:00 -- -- -- -- -- -- -- -- --
2019-12-02 12:00:00 -- -- -- -- -- -- -- -- --
2019-12-02 11:00:00 -- -- -- -- -- -- -- -- --
2019-12-02 10:00:00 -- -- -- -- -- -- -- -- --
2019-12-02 09:00:00 -- -- -- -- -- -- -- -- --
2019-12-02 08:00:00 -- -- -- -- -- -- -- -- --
2019-12-02 07:00:00 -- -- -- -- -- -- -- -- --
2019-12-02 06:00:00 -- -- -- -- -- -- -- -- --
2019-12-02 05:00:00 -- -- -- -- -- -- -- -- --
2019-12-02 04:00:00 -- -- -- -- -- -- -- -- --
2019-12-02 03:00:00 -- -- -- -- -- -- -- -- --
2019-12-02 02:00:00 -- -- -- -- -- -- -- -- --
2019-12-02 01:00:00 -- -- -- -- -- -- -- -- --
2019-12-02 00:00:00 -- -- -- -- -- -- -- -- --
2019-12-01 23:00:00 -- -- -- -- -- -- -- -- --
2019-12-01 22:00:00 -- -- -- -- -- -- -- -- --
2019-12-01 21:00:00 -- -- -- -- -- -- -- -- --
2019-12-01 20:00:00 -- -- -- -- -- -- -- -- --
2019-12-01 19:00:00 -- -- -- -- -- -- -- -- --
2019-12-01 18:00:00 -- -- -- -- -- -- -- -- --
2019-12-01 17:00:00 -- -- -- -- -- -- -- -- --
2019-12-01 16:00:00 -- -- -- -- -- -- -- -- --
2019-12-01 15:00:00 -- -- -- -- -- -- -- -- --
2019-12-01 14:00:00 -- -- -- -- -- -- -- -- --
2019-12-01 13:00:00 -- -- -- -- -- -- -- -- --
2019-12-01 12:00:00 -- -- -- -- -- -- -- -- --
2019-12-01 11:00:00 -- -- -- -- -- -- -- -- --
2019-12-01 10:00:00 -- -- -- -- -- -- -- -- --
2019-12-01 09:00:00 -- -- -- -- -- -- -- -- --
2019-12-01 08:00:00 -- -- -- -- -- -- -- -- --
2019-12-01 07:00:00 -- -- -- -- -- -- -- -- --
2019-12-01 06:00:00 -- -- -- -- -- -- -- -- --
2019-12-01 05:00:00 -- -- -- -- -- -- -- -- --
2019-12-01 04:00:00 -- -- -- -- -- -- -- -- --
2019-12-01 03:00:00 -- -- -- -- -- -- -- -- --
2019-12-01 02:00:00 -- -- -- -- -- -- -- -- --
2019-12-01 01:00:00 -- -- -- -- -- -- -- -- --
2019-12-01 00:00:00 -- -- -- -- -- -- -- -- --
2019-11-30 23:00:00 -- -- -- -- -- -- -- -- --
2019-11-30 22:00:00 -- -- -- -- -- -- -- -- --
2019-11-30 21:00:00 -- -- -- -- -- -- -- -- --
2019-11-30 20:00:00 -- -- -- -- -- -- -- -- --
2019-11-30 19:00:00 -- -- -- -- -- -- -- -- --
2019-11-30 18:00:00 -- -- -- -- -- -- -- -- --
2019-11-30 17:00:00 -- -- -- -- -- -- -- -- --
2019-11-30 16:00:00 10.2 9 Noroeste 45 Sur 0.2 -- -- 80
2019-11-30 15:00:00 9.8 18 Sudoeste 40 Sudoeste 0.6 -- -- 80
2019-11-30 14:00:00 12.1 10 Noroeste 39 Sudoeste 0 -- -- 69
2019-11-30 13:00:00 12.1 8 Noroeste 43 Sudoeste 0 -- -- 72
2019-11-30 12:00:00 11.5 14 Sudoeste 39 Sur 0 -- -- 74
2019-11-30 11:00:00 10.2 12 Sudoeste 35 Sur 0 -- -- 74
2019-11-30 10:00:00 11.1 8 Noroeste 23 Sur 0 -- -- 84
2019-11-30 09:00:00 10.8 6 Oeste 23 Sudoeste 0 -- -- 93
2019-11-30 08:00:00 10 7 Oeste 31 Sur 0.4 -- -- 100
2019-11-30 07:00:00 9.2 17 Noroeste 50 Noroeste 4.8 -- -- 100
2019-11-30 06:00:00 12.3 19 Noroeste 50 Noroeste 0.4 -- -- 94
2019-11-30 05:00:00 13.2 8 Noroeste 33 Sudoeste 1.8 -- -- 97
2019-11-30 04:00:00 13.1 10 Sudoeste 27 Sur 0.4 -- -- 96
2019-11-30 03:00:00 13.9 16 Sudoeste 45 Sur 0.2 -- -- 90
2019-11-30 02:00:00 14.9 25 Sudoeste 50 Sur 0 -- -- 81
2019-11-30 01:00:00 13.3 9 Sudoeste 21 Sudoeste 0 -- -- 81
2019-11-30 00:00:00 12.7 5 Sur 13 Sur 0 -- -- 73
2019-11-29 23:00:00 12.1 4 Sur 15 Sudoeste 0 -- -- 75
2019-11-29 22:00:00 12.6 4 Sur 12 Sudoeste 0 -- -- 74
2019-11-29 21:00:00 13 3 Este 9 Este 0 -- -- 72
2019-11-29 20:00:00 11.2 4 Este 6 Este 0 -- -- 88
2019-11-29 19:00:00 10.5 0 Calma 6 Sudeste 0 -- -- 91
2019-11-29 18:00:00 10.7 4 Sudeste 13 Noroeste 0 -- -- 90
2019-11-29 17:00:00 12.2 3 Sur 12 Noroeste 0 -- -- 85
2019-11-29 16:00:00 13.8 4 Oeste 12 Oeste 0 -- -- 81
2019-11-29 15:00:00 14.3 8 Oeste 10 Oeste 0 -- -- 80
2019-11-29 14:00:00 14.5 0 Calma 8 Noroeste 0 -- -- 77
2019-11-29 13:00:00 14.7 3 Sudeste 10 Sudeste 0 -- -- 79
2019-11-29 12:00:00 -- 5 Sudeste -- -- -- -- -- --
2019-11-29 11:00:00 12.5 4 Sudeste 11 Este 0 -- -- 87
2019-11-29 10:00:00 10.6 6 Este 10 Este 0 -- -- 92
2019-11-29 09:00:00 9.5 3 Sur 13 Sudeste 0 -- -- 95
2019-11-29 08:00:00 10.1 7 Este 9 Este 0 -- -- 93
2019-11-29 07:00:00 10.3 0 Calma 6 Sudeste 0 -- -- 96
2019-11-29 06:00:00 10.1 4 Noroeste 9 Oeste 0 -- -- 98
2019-11-29 05:00:00 10.7 5 Este 8 Este 0 -- -- 94
2019-11-29 04:00:00 10.8 2 Sudeste 6 Nordeste 0 -- -- 95
2019-11-29 03:00:00 10.7 5 Este 8 Este 0 -- -- 96
2019-11-29 02:00:00 10.8 6 Noroeste 14 Noroeste 0 -- -- 97
2019-11-29 01:00:00 11.3 3 Noroeste 8 Oeste 0 -- -- 95
2019-11-29 00:00:00 10.9 0 Calma 13 Sur 0 -- -- 99
2019-11-28 23:00:00 10.8 4 Sudoeste 11 Oeste 0 -- -- 100
2019-11-28 22:00:00 10.6 9 Noroeste 22 Noroeste 0.4 -- -- 100
2019-11-28 21:00:00 11.2 18 Noroeste 30 Noroeste 1.2 -- -- 100
2019-11-28 20:00:00 11.6 10 Noroeste 37 Sudoeste 1.4 -- -- 100
2019-11-28 19:00:00 11.8 9 Sudoeste 30 Sudoeste 1.8 -- -- 100
2019-11-28 18:00:00 12.1 10 Sudoeste 54 Sudoeste 1.8 -- -- 95
2019-11-28 17:00:00 11.9 14 Sudoeste 39 Sur 1.2 -- -- 93
2019-11-28 16:00:00 10.9 10 Sudeste 15 Sudeste 1.4 -- -- 98
2019-11-28 15:00:00 11.3 4 Oeste 18 Oeste 1.2 -- -- 95
2019-11-28 14:00:00 12 7 Noroeste 26 Sudoeste 0.8 -- -- 90
2019-11-28 13:00:00 12.7 10 Oeste 29 Sudoeste 0 -- -- 82
2019-11-28 12:00:00 11.8 13 Noroeste 19 Noroeste 0 -- -- 93
2019-11-28 11:00:00 11.5 5 Sudeste 11 Sur 0 -- -- 95
2019-11-28 10:00:00 11 5 Noroeste 13 Oeste 0 -- -- 95
2019-11-28 09:00:00 11 8 Noroeste 12 Noroeste 0 -- -- 94
2019-11-28 08:00:00 10.8 11 Noroeste 15 Noroeste 0 -- -- 93
2019-11-28 07:00:00 11.1 10 Noroeste 14 Noroeste 0 -- -- 90
2019-11-28 06:00:00 11.3 6 Noroeste 15 Oeste 0 -- -- 88
2019-11-28 05:00:00 11.3 6 Noroeste 16 Noroeste 0 -- -- 88
2019-11-28 04:00:00 11.7 8 Oeste 30 Noroeste 0 -- -- 85
2019-11-28 03:00:00 11.9 11 Oeste 37 Oeste 0 -- -- 82
2019-11-28 02:00:00 12.1 13 Oeste 40 Oeste 0 -- -- 79
2019-11-28 01:00:00 11.9 10 Noroeste 27 Sudoeste 0 -- -- 84
2019-11-28 00:00:00 11.3 9 Noroeste 35 Sudoeste 0 -- -- 89
2019-11-27 23:00:00 11 12 Oeste 33 Sudoeste 0 -- -- 88
2019-11-27 22:00:00 11.4 10 Noroeste 27 Sudoeste 0 -- -- 84
2019-11-27 21:00:00 11 8 Noroeste 26 Sudoeste 0 -- -- 87
2019-11-27 20:00:00 10.9 9 Noroeste 23 Oeste 0 -- -- 88
2019-11-27 19:00:00 10.9 7 Noroeste 37 Sudoeste 0 -- -- 87
2019-11-27 18:00:00 11.3 7 Noroeste 31 Oeste 0 -- -- 83
2019-11-27 17:00:00 11.7 8 Oeste 36 Noroeste 0 -- -- 77
2019-11-27 16:00:00 11.7 12 Oeste 35 Sur 0 -- -- 77
2019-11-27 15:00:00 10.8 15 Sudoeste 35 Sudoeste 0 -- -- 80
2019-11-27 14:00:00 12.2 10 Noroeste 28 Oeste 0 -- -- 75
2019-11-27 06:00:00 10.9 11 Noroeste 27 Oeste 0 -- -- 75
2019-11-27 05:00:00 10.9 12 Noroeste 45 Sudoeste 0 -- -- 76
2019-11-27 04:00:00 10.8 12 Oeste 44 Oeste 0 -- -- 76
2019-11-27 03:00:00 10.9 9 Oeste 38 Oeste 0 -- -- 79
2019-11-27 02:00:00 11.1 17 Oeste 50 Sudoeste 0 -- -- 78
2019-11-27 01:00:00 10.3 14 Oeste 47 Sudoeste 0.2 -- -- 85
2019-11-27 00:00:00 10.8 17 Oeste 50 Sudoeste 0 -- -- 79
2019-11-26 23:00:00 10.5 17 Oeste 60 Sudoeste 0 -- -- 77
2019-11-26 22:00:00 10.8 17 Oeste 64 Sudoeste 0 -- -- 74
2019-11-26 21:00:00 10.6 10 Noroeste 44 Sudoeste 0 -- -- 78
2019-11-26 20:00:00 9.9 12 Noroeste 54 Sudoeste 0 -- -- 80
2019-11-26 19:00:00 9.5 20 Oeste 72 Noroeste 4.8 -- -- 91
2019-11-26 18:00:00 12.8 25 Noroeste 71 Noroeste 0.6 -- -- 81
2019-11-26 17:00:00 13 17 Sudoeste 70 Sudoeste 1.4 -- -- 87
2019-11-26 16:00:00 16.6 22 Oeste 69 Sudoeste 0 -- -- 59
2019-11-26 15:00:00 17.4 18 Oeste 76 Sudoeste 0 -- -- 54
2019-11-26 14:00:00 16.4 30 Sudoeste 76 Sudoeste 0 -- -- 56
2019-11-26 13:00:00 16.7 30 Sudoeste 80 Sur 0 -- -- 57
2019-11-26 12:00:00 16.8 22 Sudoeste 69 Sudoeste 0 -- -- 57
2019-11-26 11:00:00 15.9 18 Oeste 68 Sudoeste 0 -- -- 62
2019-11-26 10:00:00 15.3 26 Sudoeste 62 Sur 0 -- -- 72
2019-11-26 09:00:00 14.8 12 Noroeste 40 Oeste 0 -- -- 77
2019-11-26 08:00:00 14.5 8 Noroeste 36 Sudoeste 0 -- -- 88
2019-11-26 07:00:00 15 9 Oeste 48 Sudoeste 0.2 -- -- 84
2019-11-26 06:00:00 14.7 9 Noroeste 28 Noroeste 0.2 -- -- 89
2019-11-26 05:00:00 15.5 10 Noroeste 44 Sur 0 -- -- 83
2019-11-26 04:00:00 16.4 23 Sudoeste 61 Sur 0 -- -- 76
2019-11-26 03:00:00 16.4 26 Sudoeste 70 Sudoeste 0 -- -- 74
2019-11-26 02:00:00 16.8 29 Sudoeste 70 Sur 0 -- -- 71
2019-11-26 01:00:00 16.4 20 Sudoeste 53 Sudoeste 0 -- -- 70
2019-11-26 00:00:00 15.2 17 Sudoeste 48 Sur 0 -- -- 68
2019-11-25 23:00:00 14.6 21 Sudoeste 59 Sudoeste 0 -- -- 64
2019-11-25 22:00:00 14.3 14 Oeste 58 Sudoeste 0 -- -- 65
2019-11-25 21:00:00 13.6 20 Sudoeste 48 Sur 0 -- -- 70
2019-11-25 20:00:00 13.4 20 Sudoeste 55 Sudoeste 0 -- -- 71
2019-11-25 19:00:00 13.4 10 Oeste 39 Sudoeste 0 -- -- 72
2019-11-25 18:00:00 13.6 19 Sudoeste 41 Sudoeste 0 -- -- 72
2019-11-25 17:00:00 13.3 9 Noroeste 32 Oeste 0 -- -- 74
2019-11-25 16:00:00 13.6 10 Oeste 41 Sudoeste 0 -- -- 74
2019-11-25 15:00:00 13.3 12 Noroeste 36 Sudoeste 0 -- -- 72
2019-11-25 14:00:00 13 17 Noroeste 33 Noroeste 0 -- -- 72
2019-11-25 13:00:00 13.1 13 Noroeste 31 Sudoeste 0 -- -- 77
2019-11-25 12:00:00 12.8 9 Oeste 27 Sur 0 -- -- 83
2019-11-25 11:00:00 12.2 6 Noroeste 20 Sudoeste 0 -- -- 89
2019-11-25 10:00:00 11.6 10 Oeste 18 Noroeste 0 -- -- 91
2019-11-25 09:00:00 11 10 Noroeste 23 Oeste 0 -- -- 95
2019-11-25 08:00:00 11.9 11 Noroeste 28 Sudoeste 0 -- -- 85
2019-11-25 07:00:00 12.7 12 Noroeste 31 Oeste 0 -- -- 81
2019-11-25 06:00:00 12.8 10 Oeste 30 Sudoeste 0 -- -- 79
2019-11-25 05:00:00 12.7 9 Noroeste 30 Sudoeste 0 -- -- 84
2019-11-25 04:00:00 13.1 10 Noroeste 36 Sudoeste 0 -- -- 79
2019-11-25 03:00:00 13.3 11 Noroeste 35 Oeste 0 -- -- 76
2019-11-25 02:00:00 13.1 13 Noroeste 41 Sudoeste 0 -- -- 89
2019-11-25 01:00:00 13.8 13 Oeste 46 Sudoeste 0 -- -- 81
2019-11-25 00:00:00 13.2 17 Sudoeste 44 Sur 0 -- -- 87
2019-11-24 23:00:00 13.8 10 Oeste 42 Sudoeste 0 -- -- 83
2019-11-24 22:00:00 13.7 15 Sudoeste 41 Oeste 0 -- -- 85
2019-11-24 21:00:00 13.5 8 Noroeste 36 Sudoeste 0 -- -- 83
2019-11-24 20:00:00 12.6 13 Sudoeste 39 Sudoeste 0 -- -- 90
2019-11-24 19:00:00 12.6 25 Sudoeste 65 Sudoeste 0 -- -- 87
2019-11-24 18:00:00 13.4 21 Sudoeste 57 Sur 0 -- -- 80
2019-11-24 17:00:00 13.3 24 Sudoeste 60 Sur 0 -- -- 81
2019-11-24 16:00:00 14.1 23 Sudoeste 71 Sudoeste 0 -- -- 75
2019-11-24 15:00:00 12.2 24 Sudoeste 54 Sudoeste 0 -- -- 81
2019-11-24 14:00:00 11.6 20 Sudoeste 60 Sudoeste 0 -- -- 79
2019-11-24 13:00:00 12 24 Sudoeste 54 Sudoeste 0 -- -- 75
2019-11-24 12:00:00 10.9 20 Sudoeste 53 Sudoeste 0 -- -- 76
2019-11-24 11:00:00 10.1 21 Sudoeste 49 Oeste 0 -- -- 77
2019-11-24 10:00:00 9.5 16 Sudoeste 49 Sudoeste 0 -- -- 78
2019-11-24 09:00:00 8.9 15 Sudoeste 41 Sudoeste 0 -- -- 80
2019-11-24 08:00:00 8.4 9 Oeste 36 Sudoeste 0 -- -- 81
2019-11-24 07:00:00 7.9 9 Sudoeste 28 Sur 0 -- -- 82
2019-11-24 06:00:00 8 12 Sudoeste 37 Sudoeste 0.2 -- -- 82
2019-11-24 05:00:00 8.1 15 Sudoeste 41 Oeste 0 -- -- 82
2019-11-24 04:00:00 8.2 6 Norte 30 Sudoeste 0 -- -- 86
2019-11-24 03:00:00 7.5 6 Noroeste 15 Oeste 0 -- -- 92
2019-11-24 02:00:00 7.9 7 Oeste 21 Sudoeste 0 -- -- 92
2019-11-24 01:00:00 7.5 5 Oeste 13 Sur 0 -- -- 94
2019-11-24 00:00:00 7.4 5 Sudoeste 19 Noroeste 0.2 -- -- 96
2019-11-23 23:00:00 8.6 8 Oeste 24 Sudoeste 0 -- -- 83
2019-11-23 22:00:00 8.8 8 Oeste 24 Sudoeste 0 -- -- 80
2019-11-23 21:00:00 8.6 9 Oeste 26 Sudoeste 0 -- -- 83
2019-11-23 20:00:00 8.6 9 Oeste 31 Sudoeste 0 -- -- 83
2019-11-23 19:00:00 8.4 8 Oeste 28 Sudoeste 0 -- -- 87
2019-11-23 18:00:00 8.5 11 Oeste 26 Sudoeste 0 -- -- 87
2019-11-23 17:00:00 8.4 6 Noroeste 25 Noroeste 0.4 -- -- 96
2019-11-23 16:00:00 7.3 16 Noroeste 43 Noroeste 1.6 -- -- 98
2019-11-23 15:00:00 9.4 12 Oeste 32 Oeste 0 -- -- 88
2019-11-23 14:00:00 8.3 12 Oeste 32 Noroeste 0.2 -- -- 96
2019-11-23 13:00:00 7 12 Noroeste 41 Noroeste 6.6 -- -- 100
2019-11-23 12:00:00 7.9 19 Noroeste 32 Oeste 1 -- -- 97
2019-11-23 11:00:00 7.5 6 Noroeste 26 Noroeste 0.6 -- -- 97
2019-11-23 10:00:00 6.9 16 Noroeste 46 Noroeste 2.8 -- -- 98
2019-11-23 09:00:00 7.1 6 Oeste 37 Noroeste 0.2 -- -- 97
2019-11-23 08:00:00 6.7 9 Sudoeste 30 Oeste 1.4 -- -- 100
2019-11-23 07:00:00 6.5 10 Oeste 36 Noroeste 1.4 -- -- 98
2019-11-23 06:00:00 6.7 12 Noroeste 35 Noroeste 0.6 -- -- 95
2019-11-23 05:00:00 6.8 15 Noroeste 46 Oeste 0.2 -- -- 99
2019-11-23 04:00:00 6.7 19 Noroeste 54 Oeste 4.4 -- -- 100
2019-11-23 03:00:00 7.3 30 Noroeste 82 Noroeste 5 -- -- 100
2019-11-23 02:00:00 8 24 Noroeste 85 Noroeste 6 -- -- 100
2019-11-23 01:00:00 8.4 48 Noroeste 82 Oeste 8 -- -- 100
2019-11-23 00:00:00 8.5 36 Noroeste 61 Oeste 6.8 -- -- 100
2019-11-22 23:00:00 8.4 13 Noroeste 40 Noroeste 4.6 -- -- 99
2019-11-22 22:00:00 9 8 Oeste 38 Oeste 4.6 -- -- 96
2019-11-22 21:00:00 9.3 13 Noroeste 39 Sudoeste 1.4 -- -- 96
2019-11-22 20:00:00 10 13 Oeste 45 Sudoeste 0.2 -- -- 88
2019-11-22 19:00:00 9.7 17 Oeste 47 Sudoeste 0.2 -- -- 91
2019-11-22 18:00:00 9.8 14 Sudoeste 56 Sur 0 -- -- 86
2019-11-22 17:00:00 9.6 15 Sudoeste 50 Sudoeste 0.8 -- -- 90
2019-11-22 16:00:00 10.5 18 Sudoeste 46 Sudoeste 0.6 -- -- 84
2019-11-22 15:00:00 11.5 14 Sudoeste 40 Sudoeste 0 -- -- 78
2019-11-22 14:00:00 11.1 12 Noroeste 41 Sudoeste 0.4 -- -- 81
2019-11-22 13:00:00 12.1 14 Noroeste 48 Sudoeste 0.4 -- -- 83
2019-11-22 12:00:00 13.2 21 Sudoeste 63 Sudoeste 0.2 -- -- 80
2019-11-22 11:00:00 10.6 11 Sudoeste 30 Sudeste 0 -- -- 93
2019-11-22 10:00:00 10.4 15 Sur 64 Sur 0 -- -- 92
2019-11-22 09:00:00 11.9 14 Sudoeste 42 Sur 0 -- -- 76
2019-11-22 08:00:00 11.1 19 Sudoeste 39 Sur 0 -- -- 72
2019-11-22 07:00:00 9.2 12 Sudeste 26 Sur 0 -- -- 81
2019-11-22 06:00:00 9.7 11 Sur 43 Sudeste 0 -- -- 78
2019-11-22 05:00:00 9.7 19 Sur 38 Sur 0 -- -- 76
2019-11-22 04:00:00 10.4 21 Sur 50 Sur 0 -- -- 66
2019-11-22 03:00:00 10.4 17 Sur 42 Sudeste 0 -- -- 62
2019-11-22 02:00:00 9.9 17 Sur 36 Sur 0 -- -- 65
2019-11-22 01:00:00 9.9 25 Sur 48 Sur 0 -- -- 64
2019-11-22 00:00:00 9.3 16 Sudoeste 36 Sudoeste 0 -- -- 67
2019-11-21 23:00:00 9.3 15 Sudoeste 34 Sur 0 -- -- 69
2019-11-21 22:00:00 8.5 12 Sudoeste 28 Sudoeste 0 -- -- 76
2019-11-21 21:00:00 8.7 10 Sudoeste 35 Sur 0 -- -- 75
2019-11-21 20:00:00 8.1 8 Oeste 22 Oeste 0 -- -- 79
2019-11-21 19:00:00 8.1 7 Sudoeste 29 Sur 0 -- -- 84
2019-11-21 18:00:00 8.9 8 Sudoeste 28 Sudoeste 0 -- -- 78
2019-11-21 17:00:00 9.7 7 Sudoeste 35 Sudoeste 0 -- -- 75
2019-11-21 16:00:00 11.4 13 Sudoeste 33 Sur 0 -- -- 69
2019-11-21 15:00:00 11.5 9 Oeste 35 Sudoeste 0 -- -- 66
2019-11-21 14:00:00 11.3 14 Sudoeste 35 Sur 0 -- -- 70
2019-11-21 13:00:00 10.7 12 Sudoeste 35 Sudoeste 0 -- -- 74
2019-11-21 12:00:00 9.3 9 Sudoeste 30 Sudoeste 0 -- -- 79
2019-11-21 11:00:00 9.3 13 Sudoeste 33 Sudoeste 0 -- -- 84
2019-11-21 10:00:00 7.2 10 Sudoeste 24 Sur 0 -- -- 91
2019-11-21 09:00:00 7.5 6 Oeste 28 Sudoeste 0 -- -- 81
2019-11-21 08:00:00 7.1 13 Sudoeste 36 Sur 0 -- -- 82
2019-11-21 07:00:00 7 16 Sudoeste 35 Sur 0 -- -- 81
2019-11-21 06:00:00 7.1 12 Sudoeste 35 Sudoeste 0 -- -- 83
2019-11-21 05:00:00 7 5 Sudoeste 27 Sur 0 -- -- 85
2019-11-21 04:00:00 7.4 11 Sudoeste 32 Sur 0 -- -- 86
2019-11-21 03:00:00 7.1 10 Sudoeste 28 Sur 0 -- -- 90
2019-11-21 02:00:00 6.7 6 Sudoeste 19 Oeste 0 -- -- 92
2019-11-21 01:00:00 7.7 5 Oeste 19 Sur 0 -- -- 83
2019-11-21 00:00:00 7.9 10 Sudoeste 41 Sur 0 -- -- 81
2019-11-20 23:00:00 8.2 12 Sudoeste 36 Sudoeste 0 -- -- 81
2019-11-20 22:00:00 8.6 17 Sudoeste 33 Sudoeste 0 -- -- 79
2019-11-20 21:00:00 8.2 10 Oeste 29 Sudoeste 0 -- -- 81
2019-11-20 20:00:00 8.3 7 Sudoeste 37 Sudoeste 0 -- -- 82
2019-11-20 19:00:00 8.6 8 Sudoeste 30 Sudoeste 0 -- -- 81
2019-11-20 18:00:00 9.5 17 Sur 31 Sur 0 -- -- 80
2019-11-20 17:00:00 11 6 Sudoeste 26 Sur 0 -- -- 71
2019-11-20 16:00:00 11.7 9 Sudoeste 32 Sur 0 -- -- 68
2019-11-20 15:00:00 11.3 10 Sudoeste 32 Sur 0 -- -- 72
2019-11-20 14:00:00 11.2 10 Sudoeste 31 Oeste 0 -- -- 72
2019-11-20 13:00:00 10.6 9 Sudoeste 23 Sudoeste 0 -- -- 79
2019-11-20 12:00:00 10.1 7 Sudoeste 16 Sudoeste 0 -- -- 85
2019-11-20 11:00:00 9 6 Noroeste 13 Nordeste 0 -- -- 86
2019-11-20 10:00:00 8.6 2 Norte 5 Nordeste 0 -- -- 85
2019-11-20 09:00:00 7.2 0 Calma 9 Sur 0 -- -- 89
2019-11-20 08:00:00 7.2 3 Sudeste 11 Sudoeste 0 -- -- 89
2019-11-20 07:00:00 8.2 9 Oeste 14 Sudoeste 0 -- -- 84
2019-11-20 06:00:00 8.7 5 Sur 15 Sur 0 -- -- 82
2019-11-20 05:00:00 8.3 6 Sudeste 15 Sur 0 -- -- 86
2019-11-20 04:00:00 8 0 Calma 5 Este 0 -- -- 91
2019-11-20 03:00:00 8.2 0 Calma 9 Este 0 -- -- 91
2019-11-20 02:00:00 7.8 5 Sudeste 9 Sudeste 0 -- -- 95
2019-11-20 01:00:00 8.1 4 Sudoeste 13 Sur 0 -- -- 94
2019-11-20 00:00:00 7.9 3 Noroeste 18 Sudeste 0 -- -- 95
2019-11-19 23:00:00 8 3 Sudeste 16 Sudeste -- -- -- 95
2019-11-19 22:00:00 7.9 4 Sudeste 9 Sudeste 0 -- -- 94
2019-11-19 21:00:00 7.8 9 Sudeste 15 Sudeste 0 -- -- 93
2019-11-19 20:00:00 8.3 4 Sur 8 Sur 0 -- -- 86
2019-11-19 19:00:00 8.1 3 Sudeste 13 Este 0 -- -- 87
2019-11-19 18:00:00 8.3 5 Este 10 Este 0.2 -- -- 85
2019-11-19 17:00:00 9 3 Nordeste 14 Este 0 -- -- 74
2019-11-19 16:00:00 8.9 6 Este 12 Este 0 -- -- 76
2019-11-19 15:00:00 9.2 0 Calma 12 Sur 0 -- -- 74
2019-11-19 14:00:00 9.5 6 Sudoeste 19 Sur 0 -- -- 67
2019-11-19 13:00:00 8.9 8 Sudoeste 17 Sur 0 -- -- 71
2019-11-19 12:00:00 9.2 10 Sur 19 Sudoeste 0 -- -- 74
2019-11-19 11:00:00 6.5 4 Sudoeste 16 Sur 0 -- -- 81
2019-11-19 10:00:00 5.2 5 Sur 13 Sur 0 -- -- 91
2019-11-19 09:00:00 4.3 0 Calma 8 Norte 0 -- -- 90
2019-11-19 08:00:00 3.3 0 Calma 12 Sudoeste 0 -- -- 98
2019-11-19 07:00:00 3.5 3 Norte 10 Sudoeste 0 -- -- 99
2019-11-19 06:00:00 3.3 10 Sudoeste 15 Sudoeste 0 -- -- 99
2019-11-19 05:00:00 3.3 5 Sur 12 Sur 0 -- -- 99
2019-11-19 04:00:00 3.6 9 Sur 15 Sur 0 -- -- 100
2019-11-19 03:00:00 3.9 4 Oeste 11 Oeste 0 -- -- 99
2019-11-19 02:00:00 4.5 2 Sur 17 Sur 0 -- -- 98
2019-11-19 01:00:00 4.8 12 Sudoeste 16 Sudoeste 0 -- -- 97
2019-11-19 00:00:00 5.8 2 Sur 11 Sudeste 0 -- -- 91
2019-11-18 23:00:00 5.9 0 Calma 16 Sur 0 -- -- 94
2019-11-18 22:00:00 6.6 7 Sur 12 Este 0 -- -- 89
2019-11-18 21:00:00 7 2 Este 8 Este 0 -- -- 90
2019-11-18 20:00:00 6.7 3 Sur 10 Oeste 0 -- -- 93
2019-11-18 19:00:00 6.8 4 Sudoeste 10 Sur 0 -- -- 91
2019-11-18 18:00:00 7.2 0 Calma 10 Sur 0 -- -- 95
2019-11-18 17:00:00 8.1 0 Calma 7 Este 0 -- -- 94
2019-11-18 16:00:00 7.6 6 Este 23 Norte 0.8 -- -- 94
2019-11-18 15:00:00 9.4 4 Sur 14 Sudoeste 0 -- -- 93
2019-11-18 14:00:00 9.2 7 Sudoeste 13 Sudoeste 0 -- -- 90
2019-11-18 13:00:00 9.2 6 Sudoeste 16 Sudoeste 0 -- -- 93
2019-11-18 12:00:00 7.8 4 Oeste 14 Sur 0.4 -- -- 99
2019-11-18 11:00:00 6.8 3 Norte 10 Sur 0.6 -- -- 100
2019-11-18 10:00:00 6.2 5 Sur 9 Sudoeste 0.6 -- -- 100
2019-11-18 09:00:00 6 4 Sur 10 Sur 0 -- -- 100
2019-11-18 08:00:00 5.7 2 Sudoeste 8 Sudeste 0 -- -- 100
2019-11-18 07:00:00 5.6 4 Este 9 Sudeste 0.2 -- -- 100
2019-11-18 06:00:00 5.7 10 Noroeste 32 Noroeste 1.6 -- -- 100
2019-11-18 05:00:00 5.9 9 Sudoeste 15 Sudoeste 0 -- -- 100
2019-11-18 04:00:00 5.8 4 Sudeste 6 Sudeste 1.8 -- -- 100
2019-11-18 03:00:00 6 0 Calma 18 Nordeste 5.4 -- -- 100
2019-11-18 02:00:00 5.8 3 Sur 14 Este 2.4 -- -- 100
2019-11-18 01:00:00 6 4 Sudeste 10 Este 0 -- -- 100
2019-11-18 00:00:00 5.9 3 Sur 12 Sur 2.2 -- -- 100
2019-11-17 23:00:00 6.1 5 Sudoeste 19 Nordeste 1 -- -- 99
2019-11-17 22:00:00 6.5 3 Este 40 Noroeste 0.2 -- -- 95
2019-11-17 21:00:00 7 23 Noroeste 48 Noroeste 1 -- -- 100
2019-11-17 20:00:00 7.3 19 Noroeste 34 Noroeste 3.4 -- -- 100
2019-11-17 19:00:00 6.8 6 Noroeste 21 Noroeste 4 -- -- 100
2019-11-17 18:00:00 6.9 7 Oeste 18 Oeste 0.4 -- -- 97
2019-11-17 17:00:00 7.2 8 Oeste 36 Noroeste 1 -- -- 94
2019-11-17 16:00:00 8.7 8 Oeste 21 Oeste 0.2 -- -- 85
2019-11-17 15:00:00 9.2 8 Noroeste 24 Sur 0 -- -- 82
2019-11-17 14:00:00 7.9 6 Sur 34 Noroeste 0.2 -- -- 90
2019-11-17 13:00:00 8.1 15 Noroeste 31 Noroeste 0.2 -- -- 93
2019-11-17 12:00:00 8 6 Sudoeste 33 Oeste 0.2 -- -- 94
2019-11-17 11:00:00 8.5 6 Oeste 21 Sur 0 -- -- 90
2019-11-17 10:00:00 8.4 9 Sudoeste 36 Oeste 0 -- -- 93
2019-11-17 09:00:00 8.2 15 Noroeste 39 Oeste 0.2 -- -- 99
2019-11-17 08:00:00 8.8 10 Oeste 27 Noroeste 0 -- -- 96
2019-11-17 07:00:00 8.4 7 Sudoeste 22 Sudoeste 0 -- -- 98
2019-11-17 06:00:00 7.8 5 Noroeste 43 Sudoeste 1.4 -- -- 98
2019-11-17 05:00:00 8.5 13 Sudoeste 44 Sur 0.4 -- -- 93
2019-11-17 04:00:00 8.1 12 Sudoeste 31 Sudoeste 0 -- -- 93
2019-11-17 03:00:00 8 10 Sudoeste 32 Sudoeste 0 -- -- 90
2019-11-17 02:00:00 7.5 9 Oeste 34 Sudoeste 0 -- -- 90
2019-11-17 01:00:00 7.2 12 Sudoeste 30 Sur 0 -- -- 90
2019-11-17 00:00:00 6.8 7 Sudoeste 38 Sudoeste 0 -- -- 91
2019-11-16 23:00:00 6.9 13 Sudoeste 36 Sudoeste 0 -- -- 89
2019-11-16 22:00:00 6.8 14 Sudoeste 33 Sur 0 -- -- 90
2019-11-16 21:00:00 6.6 14 Sudoeste 40 Sudoeste 0 -- -- 89
2019-11-16 20:00:00 6.3 15 Sudoeste 37 Sudoeste 0 -- -- 89
2019-11-16 19:00:00 6.6 8 Noroeste 31 Sudoeste 0 -- -- 86
2019-11-16 18:00:00 6.6 8 Oeste 31 Sudoeste 0 -- -- 86
2019-11-16 17:00:00 6.9 7 Noroeste 30 Sudoeste 0 -- -- 85
2019-11-16 16:00:00 7.9 5 Noroeste 18 Sudoeste 0 -- -- 81
2019-11-16 15:00:00 9.6 6 Oeste 22 Sudoeste 0 -- -- 77
2019-11-16 14:00:00 7.4 5 Noroeste 29 Sur 0 -- -- 86
2019-11-16 13:00:00 6.9 5 Oeste 19 Sur 0 -- -- 91
2019-11-16 12:00:00 5.6 6 Noroeste 22 Sur 0 -- -- 96
2019-11-16 11:00:00 5.4 5 Oeste 17 Oeste 0 -- -- 97
2019-11-16 10:00:00 3.9 9 Sur 20 Sur 0.6 -- -- 99
2019-11-16 09:00:00 4.1 5 Noroeste 18 Sudoeste 0.8 -- -- 98
2019-11-16 08:00:00 3.8 4 Noroeste 21 Sudoeste 0.4 -- -- 100
2019-11-16 07:00:00 3.9 5 Sudoeste 21 Sudoeste 0 -- -- 100
2019-11-16 06:00:00 3.4 14 Sur 19 Sur 1.6 -- -- 100
2019-11-16 05:00:00 3.5 7 Sur 18 Sur 1.8 -- -- 100
2019-11-16 04:00:00 3.4 7 Sudeste 18 Sudoeste 0.6 -- -- 100
2019-11-16 03:00:00 4.1 2 Sudoeste 14 Sur 0.2 -- -- 100
2019-11-16 02:00:00 4.3 7 Sur 15 Noroeste 0.6 -- -- 100
2019-11-16 01:00:00 6.2 3 Sudeste 27 Noroeste 0 -- -- 91
2019-11-16 00:00:00 6.1 12 Norte 41 Noroeste 1.2 -- -- 92
2019-11-15 23:00:00 6 22 Noroeste 54 Noroeste 0.6 -- -- 95
2019-11-15 22:00:00 6.5 13 Noroeste 44 Noroeste 0 -- -- 90
2019-11-15 21:00:00 6.4 22 Noroeste 52 Noroeste 0 -- -- 88
2019-11-15 20:00:00 5.9 26 Noroeste 61 Noroeste 1 -- -- 99
2019-11-15 19:00:00 6 28 Noroeste 46 Noroeste 0 -- -- 94
2019-11-15 18:00:00 5.2 26 Noroeste 43 Noroeste 0.4 -- -- 100
2019-11-15 17:00:00 3.9 20 Noroeste 61 Noroeste 2 -- -- 100
2019-11-15 16:00:00 3.9 5 Este 42 Oeste 3.6 -- -- 100
2019-11-15 15:00:00 3.5 8 Oeste 33 Noroeste 7 -- -- 100
2019-11-15 14:00:00 4.9 10 Oeste 50 Noroeste 1.8 -- -- 100
2019-11-15 13:00:00 3.3 10 Sudoeste 27 Sudoeste 0.6 -- -- 100
2019-11-15 12:00:00 3.8 7 Oeste 28 Oeste 1.4 -- -- 100
2019-11-15 11:00:00 3.9 12 Noroeste 31 Oeste 2 -- -- 100
2019-11-15 10:00:00 4.2 19 Noroeste 69 Noroeste 1.6 -- -- 100
2019-11-15 09:00:00 5.3 28 Noroeste 49 Noroeste 0.4 -- -- 95
2019-11-15 08:00:00 5 21 Noroeste 57 Noroeste 0 -- -- 87
2019-11-15 07:00:00 6 41 Noroeste 62 Noroeste 0.8 -- -- 87
2019-11-15 06:00:00 5.5 37 Noroeste 64 Noroeste 5.6 -- -- 98
2019-11-15 05:00:00 4 22 Noroeste 89 Noroeste 7 -- -- 100
2019-11-15 04:00:00 5.1 30 Noroeste 53 Noroeste 3.2 -- -- 100
2019-11-15 03:00:00 3.9 30 Noroeste 66 Noroeste 4 -- -- 100
2019-11-15 02:00:00 5.7 28 Noroeste 53 Oeste 2.6 -- -- 100
2019-11-15 01:00:00 5.1 7 Oeste 49 Noroeste 0 -- -- 100
2019-11-15 00:00:00 5 31 Noroeste 80 Noroeste 1.2 -- -- 100
2019-11-14 23:00:00 5 27 Noroeste 80 Noroeste 2.2 -- -- 100
2019-11-14 22:00:00 6.2 37 Noroeste 100 Noroeste 0.2 -- -- 98
2019-11-14 21:00:00 6.7 43 Noroeste 89 Noroeste 0.8 -- -- 96
2019-11-14 20:00:00 6.7 46 Noroeste 100 Noroeste 0.4 -- -- 100
2019-11-14 19:00:00 5.8 47 Noroeste 86 Noroeste 3.2 -- -- 100
2019-11-14 18:00:00 5.8 30 Noroeste 86 Noroeste 1 -- -- 100
2019-11-14 17:00:00 6.4 33 Noroeste 57 Oeste 0.8 -- -- 96
2019-11-14 16:00:00 6.4 33 Noroeste 59 Noroeste 0.6 -- -- 98
2019-11-14 15:00:00 5.6 13 Oeste 31 Oeste 0.8 -- -- 99
2019-11-14 14:00:00 3.8 9 Noroeste 30 Norte 0.2 -- -- 96
2019-11-14 13:00:00 3 9 Oeste 41 Sudoeste 2.2 -- -- 98
2019-11-14 12:00:00 4 11 Oeste 40 Sudoeste 0.4 -- -- 93
2019-11-14 11:00:00 3.6 8 Sudoeste 36 Sudoeste 0.2 -- -- 95
2019-11-14 10:00:00 4 18 Sudoeste 44 Sudoeste 0.2 -- -- 91
2019-11-14 09:00:00 4.1 13 Sudoeste 37 Sudoeste 0 -- -- 88
2019-11-14 08:00:00 4 11 Sudoeste 35 Sudoeste 0 -- -- 87
2019-11-14 07:00:00 4 9 Sudoeste 42 Sudoeste 0.2 -- -- 88
2019-11-14 06:00:00 4.4 15 Oeste 44 Sudoeste 0 -- -- 81
2019-11-14 05:00:00 4.3 13 Oeste 45 Noroeste 0 -- -- 90
2019-11-14 04:00:00 4.6 9 Oeste 41 Oeste 0 -- -- 85
2019-11-14 03:00:00 4.3 21 Noroeste 49 Noroeste 0.8 -- -- 99
2019-11-14 02:00:00 4.8 24 Noroeste 44 Oeste 1.4 -- -- 98
2019-11-14 01:00:00 5.2 22 Noroeste 63 Noroeste 2.4 -- -- 100
2019-11-14 00:00:00 6.4 39 Noroeste 73 Oeste 2.2 -- -- 100
2019-11-13 23:00:00 7.5 18 Noroeste 49 Oeste 5.8 -- -- 100
2019-11-13 22:00:00 8.2 27 Noroeste 47 Noroeste 2.2 -- -- 98
2019-11-13 21:00:00 9.5 16 Noroeste 39 Sudoeste 0.2 -- -- 86
2019-11-13 20:00:00 10.1 16 Noroeste 49 Sudoeste 0 -- -- 79
2019-11-13 19:00:00 10.4 14 Noroeste 49 Sudoeste 0 -- -- 78
2019-11-13 18:00:00 10.3 11 Oeste 24 Oeste 0 -- -- 83
2019-11-13 17:00:00 10 8 Noroeste 21 Oeste 0 -- -- 97
2019-11-13 16:00:00 10.2 7 Noroeste 16 Noroeste 0 -- -- 99
2019-11-13 15:00:00 9.3 7 Noroeste 21 Noroeste 0 -- -- 100
2019-11-13 14:00:00 8.4 13 Noroeste 23 Noroeste 0 -- -- 100
2019-11-13 13:00:00 8.4 17 Noroeste 38 Noroeste 0 -- -- 100
2019-11-13 12:00:00 9.1 10 Oeste 15 Oeste 0 -- -- 100
2019-11-13 11:00:00 9 0 Calma 13 Noroeste 0.4 -- -- 100
2019-11-13 10:00:00 8.9 0 Calma 8 Noroeste 0.8 -- -- 100
2019-11-13 09:00:00 8.6 3 Oeste 8 Nordeste 0.6 -- -- 100
2019-11-13 08:00:00 8.5 3 Noroeste 23 Norte 0.6 -- -- 100
2019-11-13 07:00:00 8.6 8 Norte 36 Norte 0 -- -- 100
2019-11-13 06:00:00 8.9 24 Norte 44 Norte 1 -- -- 100
2019-11-13 05:00:00 9.7 11 Norte 26 Noroeste 2.4 -- -- 100
2019-11-13 04:00:00 9.7 8 Noroeste 29 Norte 0.8 -- -- 100
2019-11-13 03:00:00 9.9 12 Norte 35 Norte 0.4 -- -- 100
2019-11-13 02:00:00 11 17 Norte 33 Norte 0.2 -- -- 100
2019-11-13 01:00:00 11.2 6 Noroeste 26 Noroeste 1 -- -- 100
2019-11-13 00:00:00 11.6 10 Noroeste 37 Noroeste 7.6 -- -- 100
2019-11-12 23:00:00 12 5 Oeste 13 Sudoeste 6.6 -- -- 100
2019-11-12 22:00:00 11.7 4 Noroeste 11 Sur 1.4 -- -- 100
2019-11-12 21:00:00 11.5 5 Noroeste 17 Oeste 1 -- -- 100
2019-11-12 20:00:00 11.3 4 Norte 24 Sur 1.2 -- -- 100
2019-11-12 19:00:00 11.3 9 Noroeste 37 Oeste 1.2 -- -- 97
2019-11-12 18:00:00 11.2 13 Oeste 50 Sudoeste 1.4 -- -- 96
2019-11-12 17:00:00 10.3 14 Oeste 52 Sudoeste 4.6 -- -- 97
2019-11-12 16:00:00 10.3 17 Oeste 60 Sudoeste 1.2 -- -- 94
2019-11-12 15:00:00 9.8 14 Sudoeste 45 Sudoeste 0.6 -- -- 93
2019-11-12 14:00:00 9.4 18 Sudoeste 40 Sudoeste 0.4 -- -- 92
2019-11-12 13:00:00 9.2 14 Sudoeste 32 Sur 0.2 -- -- 91
2019-11-12 12:00:00 8.9 7 Sudoeste 35 Sur 0 -- -- 91
2019-11-12 11:00:00 8.5 11 Sudoeste 30 Sudoeste 0 -- -- 94
2019-11-12 10:00:00 8 11 Sudoeste 27 Sur 0 -- -- 94
2019-11-12 09:00:00 7.2 3 Norte 15 Oeste 0.2 -- -- 98
2019-11-12 08:00:00 6.9 3 Oeste 11 Noroeste 0.2 -- -- 100
2019-11-12 07:00:00 6.8 4 Noroeste 13 Sudeste 0.4 -- -- 98
2019-11-12 06:00:00 7.2 4 Oeste 14 Sur 0 -- -- 93
2019-11-12 05:00:00 7.5 5 Noroeste 16 Sur 0 -- -- 91
2019-11-12 04:00:00 7.6 4 Sudoeste 18 Sudoeste 0 -- -- 89
2019-11-12 03:00:00 7.5 3 Noroeste 15 Sudoeste 0 -- -- 90
2019-11-12 02:00:00 7.3 5 Sudoeste 14 Noroeste 0 -- -- 93
2019-11-12 01:00:00 7.6 3 Oeste 10 Noroeste 0 -- -- 90
2019-11-12 00:00:00 7.7 3 Sudoeste 13 Sur 0 -- -- 90
2019-11-11 23:00:00 7.9 7 Sudoeste 14 Sudoeste 0 -- -- 88
2019-11-11 22:00:00 8 5 Sudoeste 14 Sudoeste 0.2 -- -- 90
2019-11-11 21:00:00 8.1 8 Sudoeste 13 Sur 0 -- -- 89
2019-11-11 20:00:00 8.2 4 Sur 9 Sudoeste 0 -- -- 89
2019-11-11 19:00:00 8.5 3 Sudeste 8 Sur 0 -- -- 87
2019-11-11 18:00:00 9.1 4 Oeste 6 Sudoeste 0 -- -- 82
2019-11-11 17:00:00 9.9 0 Calma 33 Noroeste 0 -- -- 80
2019-11-11 16:00:00 8.9 23 Noroeste 42 Noroeste 0 -- -- 95
2019-11-11 15:00:00 10.7 14 Noroeste 36 Noroeste 0 -- -- 80
2019-11-11 14:00:00 10.8 18 Noroeste 28 Noroeste 0 -- -- 81
2019-11-11 13:00:00 10.2 17 Noroeste 48 Noroeste 0 -- -- 80
2019-11-11 12:00:00 9.6 26 Noroeste 49 Noroeste 0 -- -- 86
2019-11-11 11:00:00 10 15 Noroeste 38 Oeste 0 -- -- 97
2019-11-11 10:00:00 9.8 21 Noroeste 47 Noroeste 0 -- -- 100
2019-11-11 09:00:00 10.1 26 Noroeste 57 Norte 0.8 -- -- 100
2019-11-11 08:00:00 10.6 21 Noroeste 40 Noroeste 4.8 -- -- 100
2019-11-11 07:00:00 9.4 9 Sudoeste 22 Sudoeste 1.6 -- -- 100
2019-11-11 06:00:00 9 6 Oeste 19 Sudoeste 0.8 -- -- 100
2019-11-11 05:00:00 8.5 3 Noroeste 15 Sudoeste 0.6 -- -- 100
2019-11-11 04:00:00 7.7 5 Sur 17 Noroeste 0.4 -- -- 100
2019-11-11 03:00:00 7.5 9 Oeste 24 Sudoeste 0.6 -- -- 100
2019-11-11 02:00:00 7.5 7 Sudoeste 26 Sur 0 -- -- 96
2019-11-11 01:00:00 7.1 9 Sur 20 Sudoeste 0 -- -- 97
2019-11-11 00:00:00 7 9 Sudoeste 21 Sudoeste 0.6 -- -- 100
2019-11-10 23:00:00 6.2 5 Noroeste 11 Sudoeste 0.6 -- -- 100
2019-11-10 22:00:00 6.1 2 Sudoeste 10 Sur 0.8 -- -- 100
2019-11-10 21:00:00 6.3 4 Oeste 15 Sudoeste 1 -- -- 100
2019-11-10 20:00:00 6.3 6 Sudoeste 16 Sur 1.2 -- -- 100
2019-11-10 19:00:00 6.2 6 Sudoeste 13 Sudoeste 1.6 -- -- 100
2019-11-10 18:00:00 6.3 4 Sudoeste 15 Sudoeste 1.2 -- -- 100
2019-11-10 17:00:00 6.7 5 Noroeste 17 Oeste 1.4 -- -- 100
2019-11-10 16:00:00 7.2 6 Oeste 26 Noroeste 0.6 -- -- 100
2019-11-10 15:00:00 7.2 6 Oeste 24 Noroeste 1.6 -- -- 99
2019-11-10 14:00:00 6.9 6 Noroeste 42 Noroeste 2 -- -- 100
2019-11-10 13:00:00 7.5 19 Noroeste 45 Noroeste 0.8 -- -- 100
2019-11-10 12:00:00 7.2 13 Noroeste 52 Oeste 2 -- -- 100
2019-11-10 11:00:00 7.3 8 Oeste 37 Noroeste 1.4 -- -- 97
2019-11-10 10:00:00 7.2 9 Noroeste 21 Noroeste 0.2 -- -- 99
2019-11-10 09:00:00 7 15 Noroeste 30 Oeste 0.6 -- -- 98
2019-11-10 08:00:00 6.7 9 Noroeste 21 Oeste 0.2 -- -- 97
2019-11-10 07:00:00 6.7 6 Noroeste 36 Oeste 0.2 -- -- 97
2019-11-10 06:00:00 7 20 Noroeste 45 Noroeste 0.6 -- -- 95
2019-11-10 05:00:00 6.5 8 Oeste 30 Oeste 0.8 -- -- 96
2019-11-10 04:00:00 6.2 7 Sudoeste 23 Oeste 0 -- -- 96
2019-11-10 03:00:00 6.2 13 Noroeste 27 Noroeste 3 -- -- 98
2019-11-10 02:00:00 6.2 3 Sudoeste 36 Noroeste 2.2 -- -- 96
2019-11-10 01:00:00 7.5 9 Oeste 18 Sudoeste 0 -- -- 86
2019-11-10 00:00:00 7.5 9 Noroeste 31 Noroeste 0 -- -- 84
2019-11-09 23:00:00 8.1 19 Noroeste 37 Oeste 0 -- -- 87
2019-11-09 22:00:00 8 19 Noroeste 44 Oeste 0 -- -- 88
2019-11-09 21:00:00 7.8 31 Noroeste 59 Noroeste 3 -- -- 93
2019-11-09 20:00:00 7.7 15 Noroeste 82 Noroeste 1.6 -- -- 100
2019-11-09 19:00:00 8.8 22 Noroeste 44 Noroeste 0.4 -- -- 96
2019-11-09 18:00:00 8.7 14 Noroeste 59 Oeste 0.6 -- -- 94
2019-11-09 17:00:00 8.6 21 Noroeste 50 Noroeste 0.8 -- -- 97
2019-11-09 16:00:00 10.8 7 Oeste 36 Noroeste 0 -- -- 79
2019-11-09 15:00:00 10.8 23 Noroeste 46 Noroeste 0 -- -- 82
2019-11-09 14:00:00 10.9 13 Noroeste 37 Noroeste 0 -- -- 86
2019-11-09 13:00:00 10.1 18 Noroeste 49 Oeste 0.4 -- -- 99
2019-11-09 12:00:00 12.8 9 Noroeste 23 Sudoeste 0 -- -- 83
2019-11-09 11:00:00 11.6 14 Sudoeste 46 Sudoeste 0 -- -- 85
2019-11-09 10:00:00 10.7 20 Sudoeste 45 Sudoeste 0 -- -- 86
2019-11-09 09:00:00 9.7 12 Oeste 49 Sudoeste 0 -- -- 88
2019-11-09 08:00:00 8.9 19 Oeste 54 Sudoeste 0.2 -- -- 88
2019-11-09 07:00:00 8 17 Sudoeste 50 Sudoeste 0 -- -- 92
2019-11-09 06:00:00 7.9 10 Sudoeste 37 Sudoeste 0 -- -- 91
2019-11-09 05:00:00 8.1 16 Sudoeste 44 Sudoeste 0 -- -- 87
2019-11-09 04:00:00 8.3 14 Sudoeste 36 Sudoeste 0 -- -- 85
2019-11-09 03:00:00 8.1 9 Oeste 32 Sur 0.2 -- -- 85
2019-11-09 02:00:00 7.6 7 Oeste 22 Sudoeste 0 -- -- 87
2019-11-09 01:00:00 7.8 4 Oeste 14 Sudoeste 0 -- -- 87
2019-11-09 00:00:00 7.7 5 Oeste 19 Sudoeste 0 -- -- 87
2019-11-08 23:00:00 7.7 6 Noroeste 14 Sur 0 -- -- 86
2019-11-08 22:00:00 7.7 4 Noroeste 16 Sur 0 -- -- 85
2019-11-08 21:00:00 7.5 6 Sudoeste 17 Sur 0 -- -- 89
2019-11-08 20:00:00 7.7 5 Oeste 22 Sudoeste 0.2 -- -- 90
2019-11-08 19:00:00 7.7 8 Sudoeste 21 Oeste 0 -- -- 91
2019-11-08 18:00:00 7.8 13 Noroeste 28 Noroeste 0.2 -- -- 95
2019-11-08 17:00:00 7.5 6 Oeste 48 Noroeste 3 -- -- 100
2019-11-08 16:00:00 9.8 21 Noroeste 37 Noroeste 0 -- -- 81
2019-11-08 15:00:00 8.8 13 Noroeste 46 Noroeste 2.2 -- -- 92
2019-11-08 14:00:00 8.2 9 Noroeste 53 Noroeste 1.8 -- -- 94
2019-11-08 13:00:00 7.9 13 Noroeste 41 Oeste 0.6 -- -- 95
2019-11-08 12:00:00 7.5 10 Sudoeste 23 Noroeste 2.6 -- -- 97
2019-11-08 11:00:00 7.4 10 Oeste 27 Noroeste 0.2 -- -- 98
2019-11-08 10:00:00 6.3 7 Sudoeste 19 Sudoeste 3.2 -- -- 98
2019-11-08 09:00:00 5.8 7 Sudoeste 27 Sur 0.4 -- -- 96
2019-11-08 08:00:00 5.2 8 Sudoeste 24 Sudoeste 0.4 -- -- 97
2019-11-08 07:00:00 5.1 9 Noroeste 30 Sudoeste 0.8 -- -- 95
2019-11-08 06:00:00 4.9 7 Noroeste 32 Sur 0.6 -- -- 96
2019-11-08 05:00:00 4.7 12 Oeste 30 Sur 1 -- -- 95
2019-11-08 04:00:00 5.3 12 Oeste 39 Oeste 0.2 -- -- 91
2019-11-08 03:00:00 4.6 9 Noroeste 31 Sudoeste 1 -- -- 95
2019-11-08 02:00:00 4.9 10 Noroeste 34 Sudoeste 0 -- -- 93
2019-11-08 01:00:00 4.5 7 Noroeste 40 Sudoeste 0.4 -- -- 94
2019-11-08 00:00:00 4.8 10 Sudoeste 35 Sudoeste 0.6 -- -- 93
2019-11-07 23:00:00 4.8 10 Noroeste 31 Sur 0.8 -- -- 94
2019-11-07 22:00:00 5.2 11 Oeste 33 Oeste 0 -- -- 88
2019-11-07 21:00:00 5.1 9 Noroeste 33 Sudoeste 0 -- -- 88
2019-11-07 20:00:00 5.3 11 Noroeste 30 Noroeste 0.2 -- -- 87
2019-11-07 19:00:00 5.4 6 Oeste 28 Sudoeste 0 -- -- 85
2019-11-07 18:00:00 5.1 11 Sudoeste 41 Oeste 0 -- -- 88
2019-11-07 17:00:00 4.2 4 Sudoeste 64 Noroeste 2.2 -- -- 94
2019-11-07 16:00:00 6.1 6 Noroeste 26 Sudoeste 0.2 -- -- 90
2019-11-07 15:00:00 5.3 4 Sur 24 Sudoeste 1.6 -- -- 95
2019-11-07 14:00:00 5.6 8 Oeste 28 Oeste 0.4 -- -- 92
2019-11-07 13:00:00 6.4 8 Sudoeste 31 Sudoeste 0.8 -- -- 92
2019-11-07 12:00:00 6.5 13 Oeste 28 Sudoeste 0 -- -- 88
2019-11-07 11:00:00 6.7 8 Noroeste 25 Oeste 0.2 -- -- 90
2019-11-07 10:00:00 6.7 7 Noroeste 26 Sudoeste 1.2 -- -- 91
2019-11-07 09:00:00 6.3 12 Oeste 27 Sudoeste 0.2 -- -- 89
2019-11-07 08:00:00 7.2 8 Oeste 19 Sudoeste 0 -- -- 84
2019-11-07 07:00:00 7.1 7 Oeste 27 Oeste 0 -- -- 89
2019-11-07 06:00:00 7.4 7 Oeste 26 Norte 0.2 -- -- 86
2019-11-07 05:00:00 7.7 8 Oeste 24 Sudoeste 0 -- -- 87
2019-11-07 04:00:00 7.5 5 Sudoeste 29 Noroeste 0.4 -- -- 92
2019-11-07 03:00:00 8.3 7 Oeste 23 Oeste 0 -- -- 86
2019-11-07 02:00:00 8.3 4 Sudoeste 21 Sudoeste 0 -- -- 89
2019-11-07 01:00:00 9 9 Oeste 24 Sur 0 -- -- 85
2019-11-07 00:00:00 8.8 7 Sur 22 Sudoeste 0 -- -- 92
2019-11-06 23:00:00 8.6 8 Oeste 59 Noroeste 0.4 -- -- 100
2019-11-06 22:00:00 9.8 21 Noroeste 51 Oeste 2 -- -- 100
2019-11-06 21:00:00 10.9 22 Noroeste 37 Noroeste 1.8 -- -- 100
2019-11-06 20:00:00 11.1 7 Noroeste 32 Sudoeste 0.6 -- -- 99
2019-11-06 19:00:00 11.8 10 Noroeste 42 Sudoeste 0.2 -- -- 93
2019-11-06 18:00:00 11.3 12 Oeste 47 Sur 0.6 -- -- 93
2019-11-06 17:00:00 11.5 15 Sudoeste 39 Sudoeste 0.2 -- -- 90
2019-11-06 16:00:00 12.2 16 Sudoeste 43 Oeste 0 -- -- 84
2019-11-06 15:00:00 12.5 14 Sudoeste 55 Sudoeste 0 -- -- 81
2019-11-06 14:00:00 12.3 22 Sudoeste 55 Sudoeste 0 -- -- 81
2019-11-06 13:00:00 12.1 14 Oeste 41 Sudoeste 0 -- -- 80
2019-11-06 12:00:00 11.2 11 Noroeste 34 Sur 0 -- -- 82
2019-11-06 11:00:00 10.5 11 Sudoeste 32 Sudoeste 0 -- -- 86
2019-11-06 10:00:00 10.1 8 Sudoeste 19 Sudoeste 0 -- -- 88
2019-11-06 09:00:00 9.5 4 Nordeste 14 Sudoeste 0 -- -- 90
2019-11-06 08:00:00 8.9 4 Norte 23 Sur 0 -- -- 94
2019-11-06 07:00:00 8.4 4 Noroeste 16 Sur 0 -- -- 99
2019-11-06 06:00:00 8.6 5 Noroeste 15 Sudoeste 0 -- -- 93
2019-11-06 05:00:00 8.4 4 Noroeste 15 Oeste 0 -- -- 94
2019-11-06 04:00:00 8.8 4 Oeste 12 Sudoeste 0 -- -- 93
2019-11-06 03:00:00 8.9 5 Sudoeste 15 Sudoeste 0 -- -- 94
2019-11-06 02:00:00 9.3 8 Sudoeste 20 Sudoeste 0 -- -- 95
2019-11-06 01:00:00 9 6 Oeste 18 Sudoeste 2 -- -- 100
2019-11-06 00:00:00 9.4 10 Noroeste 22 Oeste 0.2 -- -- 96